Time;durP1;ratioP1;P1;durP2;ratioP2;P2;SDS_P1;SDS_P2;PMS_P1;PMS_P2;Temp;Humidity;BMP_temperature;BMP_pressure;BME280_temperature;BME280_humidity;BME280_pressure;Samples;Min_cycle;Max_cycle;Signal;HPM_P1;HPM_P2
2023/04/12 00:01:14;;;;;;;4.38;2.85;;;8.30;97.10;;;;;;5013748;28;20152;-72
2023/04/12 00:03:40;;;;;;;5.88;3.35;;;8.30;97.10;;;;;;5015630;28;20037;-71
2023/04/12 00:06:06;;;;;;;4.05;2.42;;;8.40;97.30;;;;;;5020595;28;20030;-72
2023/04/12 00:08:33;;;;;;;5.43;3.17;;;8.30;97.10;;;;;;5020211;28;20025;-71
2023/04/12 00:11:00;;;;;;;5.75;2.80;;;8.30;97.00;;;;;;5019200;28;20086;-71
2023/04/12 00:13:27;;;;;;;5.32;2.85;;;8.30;97.10;;;;;;5025127;28;20022;-71
2023/04/12 00:15:52;;;;;;;7.15;2.75;;;8.20;97.10;;;;;;5022515;28;20057;-71
2023/04/12 00:18:18;;;;;;;4.38;2.78;;;8.20;97.10;;;;;;5015574;28;20385;-71
2023/04/12 00:20:43;;;;;;;5.03;3.50;;;8.20;97.20;;;;;;5013935;28;20382;-71
2023/04/12 00:23:11;;;;;;;6.15;2.92;;;8.20;97.20;;;;;;5016626;28;20021;-71
2023/04/12 00:25:38;;;;;;;4.22;2.38;;;8.20;97.20;;;;;;5026633;28;20488;-71
2023/04/12 00:28:04;;;;;;;3.88;2.42;;;8.20;97.10;;;;;;5012785;28;20030;-71
2023/04/12 00:30:30;;;;;;;3.67;2.50;;;8.10;97.10;;;;;;5026604;28;20026;-71
2023/04/12 00:32:56;;;;;;;4.40;2.55;;;8.20;97.10;;;;;;5024032;28;20025;-71
2023/04/12 00:35:21;;;;;;;4.70;2.55;;;8.10;97.10;;;;;;5029463;28;20038;-71
2023/04/12 00:37:47;;;;;;;3.78;2.53;;;8.10;97.20;;;;;;5020211;28;20109;-73
2023/04/12 00:40:13;;;;;;;4.10;2.38;;;8.10;97.20;;;;;;5026427;28;20038;-72
2023/04/12 00:42:38;;;;;;;5.72;2.67;;;8.10;97.10;;;;;;5027745;28;20022;-72
2023/04/12 00:45:05;;;;;;;11.02;3.22;;;8.00;97.20;;;;;;5025885;28;20022;-72
2023/04/12 00:47:34;;;;;;;4.13;2.30;;;8.00;97.20;;;;;;5013204;28;20118;-72
2023/04/12 00:50:02;;;;;;;6.82;2.63;;;7.90;97.20;;;;;;5015558;28;20029;-71
2023/04/12 00:52:33;;;;;;;3.63;2.10;;;7.90;97.20;;;;;;5011815;28;20029;-71
2023/04/12 00:55:03;;;;;;;4.50;2.70;;;7.90;97.20;;;;;;5042232;28;20044;-72
2023/04/12 00:57:39;;;;;;;4.55;2.50;;;7.80;97.30;;;;;;5011989;28;20108;-73
2023/04/12 01:00:07;;;;;;;5.20;2.65;;;7.80;97.30;;;;;;5041835;28;20045;-72
2023/04/12 01:02:33;;;;;;;3.97;2.33;;;7.80;97.30;;;;;;5043366;28;20540;-72
2023/04/12 01:05:00;;;;;;;6.22;2.65;;;7.70;97.30;;;;;;5033429;28;20465;-72
2023/04/12 01:08:06;;;;;;;6.85;2.70;;;7.70;97.30;;;;;;5024921;28;20504;-72
2023/04/12 01:10:45;;;;;;;;;;;7.60;97.30;;;;;;5015257;28;20037;-72
2023/04/12 01:13:13;;;;;;;5.10;2.45;;;7.60;97.10;;;;;;5020225;28;19933;-72
2023/04/12 01:15:47;;;;;;;5.00;2.80;;;7.60;97.20;;;;;;5015454;28;20508;-71
2023/04/12 01:18:22;;;;;;;5.05;3.10;;;7.50;97.40;;;;;;5016587;28;20390;-71
2023/04/12 01:21:00;;;;;;;4.93;2.85;;;7.60;97.40;;;;;;5021243;28;20107;-71
2023/04/12 01:23:50;;;;;;;4.40;2.60;;;7.60;97.40;;;;;;5015946;28;20057;-71
2023/04/12 01:26:33;;;;;;;5.63;2.63;;;7.50;97.40;;;;;;5015552;28;20038;-71
2023/04/12 01:29:03;;;;;;;4.20;2.42;;;7.50;97.40;;;;;;5016877;28;20032;-72
2023/04/12 01:31:31;;;;;;;6.35;2.75;;;7.50;97.40;;;;;;5021130;28;20482;-72
2023/04/12 01:33:59;;;;;;;4.53;2.20;;;7.40;97.50;;;;;;5020406;28;20034;-71
2023/04/12 01:36:26;;;;;;;6.07;3.13;;;7.40;97.50;;;;;;5018562;28;20042;-72
2023/04/12 01:38:53;;;;;;;6.00;2.60;;;7.40;97.50;;;;;;5021923;28;20037;-72
2023/04/12 01:41:19;;;;;;;6.25;3.38;;;7.30;97.50;;;;;;5015132;28;20533;-72
2023/04/12 01:43:46;;;;;;;5.63;2.97;;;7.30;97.50;;;;;;5032162;28;20056;-72
2023/04/12 01:46:15;;;;;;;4.95;2.60;;;7.30;97.70;;;;;;5028439;28;20037;-72
2023/04/12 01:48:47;;;;;;;6.55;2.80;;;7.30;97.60;;;;;;5041132;28;20047;-72
2023/04/12 01:51:29;;;;;;;5.32;2.97;;;7.20;97.50;;;;;;5038692;28;20489;-72
2023/04/12 01:54:10;;;;;;;3.85;2.50;;;7.20;97.60;;;;;;5023465;28;20477;-72
2023/04/12 01:56:40;;;;;;;4.75;2.90;;;7.20;97.70;;;;;;5016465;28;20042;-72
2023/04/12 01:59:07;;;;;;;5.78;3.50;;;7.20;97.60;;;;;;5025974;28;20381;-71
2023/04/12 02:01:33;;;;;;;6.25;3.50;;;7.20;97.70;;;;;;5023695;28;20041;-71
2023/04/12 02:04:00;;;;;;;5.53;2.88;;;7.10;97.70;;;;;;5021414;28;20037;-71
2023/04/12 02:06:26;;;;;;;4.10;2.60;;;7.10;97.70;;;;;;5030169;28;20061;-71
2023/04/12 02:09:01;;;;;;;4.70;3.17;;;7.10;98.00;;;;;;5019038;28;20030;-72
2023/04/12 02:11:27;;;;;;;7.35;3.15;;;7.10;97.80;;;;;;5026052;28;20072;-71
2023/04/12 02:13:53;;;;;;;5.97;3.80;;;7.00;97.80;;;;;;5019830;28;20061;-71
2023/04/12 02:16:19;;;;;;;6.05;3.30;;;7.00;97.90;;;;;;5019051;28;20069;-71
2023/04/12 02:18:46;;;;;;;5.88;3.30;;;7.00;97.90;;;;;;5030139;28;20033;-71
2023/04/12 02:21:12;;;;;;;5.70;3.90;;;7.00;98.00;;;;;;5044061;28;20503;-71
2023/04/12 02:23:37;;;;;;;6.10;3.70;;;7.00;98.00;;;;;;5014242;28;20022;-71
2023/04/12 02:26:03;;;;;;;5.82;3.55;;;6.90;98.00;;;;;;5026651;28;20038;-71
2023/04/12 02:28:29;;;;;;;8.23;3.83;;;6.90;98.00;;;;;;5025600;28;20033;-71
2023/04/12 02:30:55;;;;;;;5.90;3.25;;;6.90;98.00;;;;;;5031546;28;20021;-71
2023/04/12 02:33:24;;;;;;;6.78;3.38;;;6.90;98.00;;;;;;5015555;28;20517;-71
2023/04/12 02:35:51;;;;;;;5.40;3.08;;;6.80;98.00;;;;;;5034034;28;20057;-71
2023/04/12 02:38:16;;;;;;;5.80;3.83;;;6.80;98.10;;;;;;5017798;28;20034;-72
2023/04/12 02:40:42;;;;;;;4.28;3.00;;;6.80;98.10;;;;;;5025828;28;20029;-72
2023/04/12 02:43:08;;;;;;;7.05;3.45;;;6.80;98.10;;;;;;5018217;28;20030;-71
2023/04/12 02:45:34;;;;;;;4.72;3.15;;;6.80;98.10;;;;;;5021034;28;20255;-72
2023/04/12 02:48:00;;;;;;;5.43;3.33;;;6.80;98.10;;;;;;5015117;28;20034;-72
2023/04/12 02:50:25;;;;;;;6.35;3.60;;;6.70;98.00;;;;;;5021764;28;20036;-71
2023/04/12 02:52:51;;;;;;;4.32;2.85;;;6.70;98.10;;;;;;5014066;28;20429;-72
2023/04/12 02:55:17;;;;;;;7.75;3.50;;;6.70;98.10;;;;;;5012631;28;20029;-71
2023/04/12 02:57:46;;;;;;;7.35;3.53;;;6.70;98.10;;;;;;5013729;28;20422;-72
2023/04/12 03:00:12;;;;;;;5.97;3.10;;;6.60;98.10;;;;;;5013576;28;20089;-71
2023/04/12 03:02:38;;;;;;;5.55;3.40;;;6.60;98.10;;;;;;5035825;28;20144;-72
2023/04/12 03:05:06;;;;;;;6.47;3.42;;;6.50;98.20;;;;;;5023491;28;20108;-72
2023/04/12 03:07:32;;;;;;;6.43;3.55;;;6.60;98.20;;;;;;5017257;28;20389;-72
2023/04/12 03:09:58;;;;;;;4.93;2.88;;;6.60;98.40;;;;;;5023568;28;20099;-73
2023/04/12 03:12:23;;;;;;;6.72;3.33;;;6.60;98.20;;;;;;5040690;28;20040;-73
2023/04/12 03:14:49;;;;;;;7.10;3.42;;;6.50;98.20;;;;;;5019133;28;20029;-72
2023/04/12 03:17:15;;;;;;;6.68;3.22;;;6.50;98.20;;;;;;5019959;28;20034;-73
2023/04/12 03:19:40;;;;;;;6.82;3.45;;;6.50;98.30;;;;;;5027998;28;20485;-72
2023/04/12 03:22:06;;;;;;;4.82;3.90;;;6.50;98.30;;;;;;5015380;28;20026;-73
2023/04/12 03:24:36;;;;;;;8.60;3.65;;;6.40;98.30;;;;;;5013105;28;20482;-73
2023/04/12 03:27:03;;;;;;;8.73;3.70;;;6.40;98.40;;;;;;5013994;28;20029;-73
2023/04/12 03:29:30;;;;;;;5.93;3.25;;;6.40;98.40;;;;;;5012942;28;20025;-73
2023/04/12 03:31:57;;;;;;;6.97;3.35;;;6.40;98.40;;;;;;5012035;28;20068;-72
2023/04/12 03:34:23;;;;;;;6.03;3.47;;;6.40;98.40;;;;;;5025840;28;20032;-73
2023/04/12 03:36:50;;;;;;;5.97;3.05;;;6.40;98.40;;;;;;5021782;28;20484;-72
2023/04/12 03:39:15;;;;;;;7.68;3.75;;;6.40;98.40;;;;;;5016629;28;20034;-72
2023/04/12 03:41:41;;;;;;;7.82;3.58;;;6.30;98.40;;;;;;5014809;28;20441;-72
2023/04/12 03:44:07;;;;;;;5.93;3.15;;;6.30;98.50;;;;;;5015720;28;20486;-72
2023/04/12 03:46:33;;;;;;;5.05;3.20;;;6.30;98.50;;;;;;5023481;28;20025;-72
2023/04/12 03:48:59;;;;;;;8.68;3.13;;;6.40;98.50;;;;;;5014532;28;20079;-72
2023/04/12 03:51:25;;;;;;;5.93;3.55;;;6.30;98.50;;;;;;5018944;28;20018;-74
2023/04/12 03:53:53;;;;;;;6.22;3.67;;;6.30;98.50;;;;;;5020581;28;20033;-74
2023/04/12 03:56:19;;;;;;;4.57;3.38;;;6.30;98.50;;;;;;5012568;28;20073;-74
2023/04/12 03:58:45;;;;;;;7.15;3.80;;;6.30;98.50;;;;;;5012708;28;20054;-73
2023/04/12 04:01:12;;;;;;;7.55;3.28;;;6.30;98.50;;;;;;5016259;28;20148;-73
2023/04/12 04:03:39;;;;;;;9.50;3.42;;;6.30;98.50;;;;;;5032418;28;20029;-72
2023/04/12 04:06:06;;;;;;;6.75;3.50;;;6.30;98.60;;;;;;5020662;28;20030;-72
2023/04/12 04:08:32;;;;;;;5.00;3.28;;;6.30;98.60;;;;;;5011681;28;20038;-73
2023/04/12 04:10:58;;;;;;;6.60;3.70;;;6.20;98.60;;;;;;5026790;28;20114;-72
2023/04/12 04:13:24;;;;;;;6.55;3.72;;;6.20;98.60;;;;;;5021374;28;20030;-73
2023/04/12 04:15:55;;;;;;;5.97;3.63;;;6.20;98.60;;;;;;5032930;28;20038;-72
2023/04/12 04:18:21;;;;;;;5.82;3.85;;;6.20;98.70;;;;;;5021225;28;20038;-73
2023/04/12 04:20:46;;;;;;;6.07;3.88;;;6.20;98.70;;;;;;5029790;28;20439;-73
2023/04/12 04:23:12;;;;;;;6.40;3.75;;;6.20;98.70;;;;;;5017516;28;20030;-73
2023/04/12 04:25:38;;;;;;;6.43;3.40;;;6.10;98.70;;;;;;5025662;28;20135;-72
2023/04/12 04:28:06;;;;;;;7.35;3.45;;;6.10;98.80;;;;;;5024351;28;20034;-73
2023/04/12 04:30:33;;;;;;;7.80;3.80;;;6.20;98.80;;;;;;5025092;28;20033;-72
2023/04/12 04:32:59;;;;;;;5.55;3.28;;;6.20;98.80;;;;;;5036684;28;20017;-73
2023/04/12 04:35:24;;;;;;;5.75;4.03;;;6.20;98.80;;;;;;5020196;28;20392;-72
2023/04/12 04:37:53;;;;;;;7.15;3.88;;;6.20;98.80;;;;;;5026156;28;20038;-73
2023/04/12 04:40:20;;;;;;;6.20;3.45;;;6.10;98.80;;;;;;5038174;28;20315;-73
2023/04/12 04:42:53;;;;;;;7.68;3.50;;;6.10;98.90;;;;;;5020686;28;20394;-72
2023/04/12 04:45:20;;;;;;;8.07;4.30;;;6.10;98.90;;;;;;5011247;28;20116;-72
2023/04/12 04:47:46;;;;;;;6.68;4.07;;;6.10;98.90;;;;;;5028339;28;20504;-72
2023/04/12 04:50:12;;;;;;;7.65;3.78;;;6.10;98.90;;;;;;5017020;28;20129;-72
2023/04/12 04:52:38;;;;;;;7.75;3.53;;;6.10;98.90;;;;;;5012896;28;20326;-72
2023/04/12 04:55:04;;;;;;;5.22;3.90;;;6.20;99.00;;;;;;5035398;28;20041;-73
2023/04/12 04:57:30;;;;;;;5.45;4.13;;;6.20;99.00;;;;;;5014027;28;20084;-73
2023/04/12 04:59:55;;;;;;;10.50;5.43;;;6.20;99.00;;;;;;5017978;28;20053;-72
2023/04/12 05:02:21;;;;;;;5.57;3.78;;;6.20;99.00;;;;;;5011697;28;20022;-72
2023/04/12 05:04:47;;;;;;;6.85;4.00;;;6.30;99.00;;;;;;5013618;28;20112;-72
2023/04/12 05:07:13;;;;;;;6.40;3.80;;;6.30;99.00;;;;;;5013237;28;20481;-72
2023/04/12 05:09:39;;;;;;;5.68;3.90;;;6.30;99.00;;;;;;5011142;28;20485;-72
2023/04/12 05:12:04;;;;;;;8.23;4.70;;;6.30;99.00;;;;;;5024901;28;20047;-73
2023/04/12 05:14:30;;;;;;;9.80;5.22;;;6.30;99.10;;;;;;5011818;28;20095;-72
2023/04/12 05:16:56;;;;;;;6.53;4.03;;;6.40;99.10;;;;;;5019824;28;20113;-72
2023/04/12 05:19:21;;;;;;;6.32;4.65;;;6.40;99.00;;;;;;5012738;28;20429;-72
2023/04/12 05:21:47;;;;;;;6.93;4.10;;;6.40;99.00;;;;;;5026000;28;20042;-71
2023/04/12 05:24:12;;;;;;;12.05;4.72;;;6.40;99.00;;;;;;5020573;28;20117;-72
2023/04/12 05:26:38;;;;;;;6.32;4.50;;;6.50;99.00;;;;;;5027155;28;20021;-71
2023/04/12 05:29:05;;;;;;;7.60;4.60;;;6.50;99.20;;;;;;5026278;28;20030;-71
2023/04/12 05:31:31;;;;;;;8.98;4.55;;;6.50;99.00;;;;;;5028357;28;20021;-71
2023/04/12 05:33:57;;;;;;;8.73;4.72;;;6.60;99.00;;;;;;5014905;28;20117;-72
2023/04/12 05:36:23;;;;;;;8.30;4.85;;;6.70;99.00;;;;;;5019330;28;20148;-73
2023/04/12 05:38:48;;;;;;;7.93;4.57;;;6.70;99.00;;;;;;5016599;28;20041;-73
2023/04/12 05:41:14;;;;;;;6.35;3.97;;;6.70;99.00;;;;;;5023227;28;20434;-72
2023/04/12 05:43:39;;;;;;;6.45;4.10;;;6.80;99.00;;;;;;5018109;28;20017;-72
2023/04/12 05:46:08;;;;;;;9.18;4.07;;;6.80;98.90;;;;;;5023275;28;20045;-71
2023/04/12 05:48:33;;;;;;;5.40;4.05;;;6.80;98.90;;;;;;5035222;28;20068;-72
2023/04/12 05:51:01;;;;;;;8.55;4.63;;;6.90;98.90;;;;;;5030079;28;20563;-71
2023/04/12 05:53:28;;;;;;;6.32;3.88;;;6.90;98.80;;;;;;5028165;28;20021;-71
2023/04/12 05:55:54;;;;;;;7.32;4.38;;;6.90;98.80;;;;;;5024823;28;20045;-71
2023/04/12 05:58:19;;;;;;;11.00;4.70;;;7.00;98.80;;;;;;5015008;28;20116;-71
2023/04/12 06:00:45;;;;;;;9.65;4.22;;;7.00;98.80;;;;;;5024399;28;20049;-72
2023/04/12 06:03:11;;;;;;;7.70;4.60;;;7.10;98.80;;;;;;5025855;28;20330;-72
2023/04/12 06:05:37;;;;;;;11.05;5.15;;;7.10;98.70;;;;;;5026755;28;20025;-72
2023/04/12 06:08:04;;;;;;;10.68;5.43;;;7.10;98.70;;;;;;5021155;28;20394;-72
2023/04/12 06:10:30;;;;;;;11.98;5.68;;;7.20;98.70;;;;;;5030518;28;20489;-71
2023/04/12 06:12:56;;;;;;;18.63;7.35;;;7.20;98.60;;;;;;5031486;28;20033;-72
2023/04/12 06:15:21;;;;;;;8.10;4.90;;;7.30;98.60;;;;;;5033579;28;20096;-72
2023/04/12 06:17:49;;;;;;;9.40;4.72;;;7.30;98.50;;;;;;5039030;28;20476;-72
2023/04/12 06:20:15;;;;;;;11.18;4.72;;;7.30;98.50;;;;;;5034265;28;20030;-72
2023/04/12 06:22:41;;;;;;;8.07;4.53;;;7.30;98.50;;;;;;5025992;28;20087;-72
2023/04/12 06:25:07;;;;;;;8.63;4.53;;;7.30;98.50;;;;;;5011817;28;20104;-68
2023/04/12 06:27:32;;;;;;;6.57;4.45;;;7.40;98.50;;;;;;5022042;28;20029;-72
2023/04/12 06:29:58;;;;;;;9.93;5.05;;;7.50;98.40;;;;;;5020550;28;20029;-70
2023/04/12 06:32:24;;;;;;;5.82;4.53;;;7.50;98.40;;;;;;5028295;28;20021;-69
2023/04/12 06:34:50;;;;;;;5.97;4.43;;;7.60;98.40;;;;;;5015319;28;20025;-67
2023/04/12 06:37:16;;;;;;;6.75;4.45;;;7.60;98.30;;;;;;5029031;28;20045;-68
2023/04/12 06:39:41;;;;;;;9.23;4.60;;;7.70;98.30;;;;;;5015533;28;20021;-69
2023/04/12 06:42:07;;;;;;;7.05;4.30;;;7.70;98.30;;;;;;5015308;28;20026;-69
2023/04/12 06:44:32;;;;;;;12.32;4.45;;;7.80;98.30;;;;;;5023736;28;20109;-69
2023/04/12 06:46:59;;;;;;;5.22;3.75;;;7.80;98.30;;;;;;5019805;28;20118;-69
2023/04/12 06:49:24;;;;;;;8.00;4.60;;;8.00;98.30;;;;;;5029747;28;20044;-69
2023/04/12 06:51:50;;;;;;;9.48;4.47;;;8.00;98.20;;;;;;5023549;28;20033;-70
2023/04/12 06:54:16;;;;;;;8.73;5.20;;;8.00;98.20;;;;;;5024947;28;20030;-69
2023/04/12 06:56:42;;;;;;;9.77;4.53;;;8.10;98.20;;;;;;5027269;28;20104;-69
2023/04/12 06:59:08;;;;;;;8.32;4.88;;;8.20;98.20;;;;;;5025659;28;20072;-70
2023/04/12 07:01:33;;;;;;;12.27;5.05;;;8.20;98.20;;;;;;5014589;28;20034;-66
2023/04/12 07:03:59;;;;;;;9.07;4.82;;;8.30;98.20;;;;;;5014314;28;20388;-67
2023/04/12 07:06:26;;;;;;;5.78;4.45;;;8.40;98.10;;;;;;5027161;28;20056;-68
2023/04/12 07:08:51;;;;;;;9.10;4.38;;;8.50;98.10;;;;;;5034924;28;20392;-68
2023/04/12 07:11:18;;;;;;;7.55;3.47;;;8.50;98.00;;;;;;5013517;28;20754;-68
2023/04/12 07:13:44;;;;;;;8.80;4.88;;;8.60;98.00;;;;;;5016782;28;20056;-68
2023/04/12 07:16:10;;;;;;;5.75;3.92;;;8.70;97.70;;;;;;5020802;28;20067;-67
2023/04/12 07:18:35;;;;;;;9.95;4.70;;;8.70;97.70;;;;;;5031163;28;20106;-67
2023/04/12 07:21:01;;;;;;;7.30;4.05;;;8.80;97.60;;;;;;5020222;28;20030;-66
2023/04/12 07:23:26;;;;;;;8.05;4.15;;;8.90;97.40;;;;;;5014013;28;20026;-66
2023/04/12 07:25:52;;;;;;;7.75;4.07;;;8.90;97.40;;;;;;5013550;28;20160;-67
2023/04/12 07:28:19;;;;;;;6.38;3.50;;;9.00;97.30;;;;;;5013343;28;20026;-67
2023/04/12 07:30:45;;;;;;;8.73;4.45;;;9.10;97.50;;;;;;5015054;28;20501;-67
2023/04/12 07:33:10;;;;;;;4.35;2.45;;;9.20;97.20;;;;;;5011455;28;20026;-69
2023/04/12 07:35:36;;;;;;;5.75;2.80;;;9.20;97.10;;;;;;5018129;28;20127;-68
2023/04/12 07:38:01;;;;;;;7.35;3.30;;;9.30;97.00;;;;;;5031289;28;20028;-67
2023/04/12 07:40:27;;;;;;;5.70;3.22;;;9.40;96.90;;;;;;5021730;28;20508;-66
2023/04/12 07:42:53;;;;;;;5.32;3.30;;;9.40;96.80;;;;;;5044266;28;20048;-65
2023/04/12 07:45:19;;;;;;;7.53;3.60;;;9.50;96.80;;;;;;5027243;28;20441;-65
2023/04/12 07:47:45;;;;;;;4.10;2.35;;;9.60;96.70;;;;;;5019269;28;20033;-68
2023/04/12 07:50:12;;;;;;;4.88;2.60;;;9.60;96.50;;;;;;5032359;28;20488;-68
2023/04/12 07:52:38;;;;;;;6.65;2.60;;;9.70;96.30;;;;;;5016946;28;20034;-67
2023/04/12 07:55:03;;;;;;;5.35;2.47;;;9.80;96.20;;;;;;5012733;28;20041;-68
2023/04/12 07:57:30;;;;;;;4.38;1.92;;;9.80;96.10;;;;;;5012214;28;20084;-69
2023/04/12 07:59:56;;;;;;;9.55;2.53;;;9.90;95.90;;;;;;5024970;28;20523;-68
2023/04/12 08:02:25;;;;;;;5.05;2.63;;;10.00;95.50;;;;;;5022273;28;20029;-67
2023/04/12 08:04:54;;;;;;;6.75;2.38;;;10.10;95.50;;;;;;5029380;28;20061;-67
2023/04/12 08:07:21;;;;;;;4.03;2.00;;;10.10;95.30;;;;;;5023861;28;20029;-67
2023/04/12 08:09:47;;;;;;;5.88;2.22;;;10.20;95.20;;;;;;5019013;28;20033;-67
2023/04/12 08:12:13;;;;;;;3.78;2.08;;;10.30;95.10;;;;;;5026006;28;20029;-67
2023/04/12 08:14:39;;;;;;;3.65;2.10;;;10.40;94.90;;;;;;5020107;28;20037;-67
2023/04/12 08:17:04;;;;;;;4.47;1.75;;;10.40;94.80;;;;;;5014726;28;20048;-67
2023/04/12 08:19:30;;;;;;;3.78;1.60;;;10.50;94.50;;;;;;5016389;28;20117;-67
2023/04/12 08:21:56;;;;;;;4.00;1.83;;;10.50;94.30;;;;;;5026109;28;20068;-67
2023/04/12 08:24:21;;;;;;;4.18;1.80;;;10.60;94.10;;;;;;5017366;28;20936;-67
2023/04/12 08:26:47;;;;;;;4.30;1.58;;;10.60;94.10;;;;;;5032702;28;20098;-67
2023/04/12 08:29:13;;;;;;;4.95;1.90;;;10.70;94.00;;;;;;5029580;28;20040;-68
2023/04/12 08:31:39;;;;;;;2.47;1.48;;;10.70;93.80;;;;;;5021172;28;20370;-67
2023/04/12 08:34:05;;;;;;;6.35;2.08;;;10.80;93.70;;;;;;5020719;28;20770;-68
2023/04/12 08:36:30;;;;;;;3.05;1.48;;;10.90;93.60;;;;;;5028114;28;20041;-68
2023/04/12 08:39:00;;;;;;;4.15;2.20;;;11.00;93.40;;;;;;5035845;28;20029;-68
2023/04/12 08:41:26;;;;;;;4.85;1.80;;;11.00;93.30;;;;;;5028040;28;20033;-67
2023/04/12 08:43:52;;;;;;;3.92;1.60;;;11.10;93.10;;;;;;5026440;28;20090;-67
2023/04/12 08:46:17;;;;;;;5.43;2.10;;;11.20;92.90;;;;;;5023933;28;20428;-69
2023/04/12 08:48:45;;;;;;;3.95;2.13;;;11.20;92.80;;;;;;5026347;28;20044;-68
2023/04/12 08:51:14;;;;;;;3.63;1.40;;;11.30;92.50;;;;;;5031612;28;20041;-68
2023/04/12 08:53:40;;;;;;;5.18;1.25;;;11.40;91.90;;;;;;5032853;28;20037;-68
2023/04/12 08:56:10;;;;;;;4.18;1.45;;;11.50;91.80;;;;;;5019585;28;20048;-67
2023/04/12 08:58:38;;;;;;;4.63;1.45;;;11.50;91.40;;;;;;5030696;28;20032;-67
2023/04/12 09:01:06;;;;;;;5.43;1.60;;;11.60;91.40;;;;;;5018635;28;20536;-68
2023/04/12 09:03:33;;;;;;;8.65;2.35;;;11.70;91.00;;;;;;5034467;28;20029;-68
2023/04/12 09:06:02;;;;;;;4.28;1.88;;;11.70;90.90;;;;;;5027832;28;20055;-69
2023/04/12 09:08:27;;;;;;;3.25;1.70;;;11.80;90.50;;;;;;5030205;28;20017;-68
2023/04/12 09:10:53;;;;;;;3.97;1.67;;;11.90;90.50;;;;;;5041269;28;20033;-67
2023/04/12 09:13:34;;;;;;;3.92;1.30;;;11.90;90.50;;;;;;5021235;28;20386;-67
2023/04/12 09:16:00;;;;;;;2.75;1.35;;;12.00;90.10;;;;;;5016441;28;20046;-67
2023/04/12 09:18:29;;;;;;;4.18;1.20;;;12.00;88.70;;;;;;5011682;28;20021;-68
2023/04/12 09:21:08;;;;;;;5.90;1.60;;;12.10;89.00;;;;;;5020818;28;20032;-69
2023/04/12 09:23:36;;;;;;;7.15;1.65;;;12.20;88.50;;;;;;5030502;28;20034;-70
2023/04/12 09:26:03;;;;;;;2.10;1.13;;;12.30;87.70;;;;;;5023553;28;20030;-69
2023/04/12 09:28:29;;;;;;;4.38;1.80;;;12.40;87.90;;;;;;5018683;28;20025;-68
2023/04/12 09:30:59;;;;;;;5.18;1.60;;;12.40;85.90;;;;;;5022874;28;20065;-68
2023/04/12 09:33:36;;;;;;;4.95;1.45;;;12.50;85.10;;;;;;5017951;28;20028;-67
2023/04/12 09:36:03;;;;;;;5.43;1.80;;;12.60;85.80;;;;;;5022566;28;20565;-66
2023/04/12 09:38:35;;;;;;;3.42;1.45;;;12.70;85.60;;;;;;5019809;28;20499;-68
2023/04/12 09:41:18;;;;;;;4.50;1.58;;;12.70;85.20;;;;;;5033387;28;20033;-67
2023/04/12 09:43:43;;;;;;;4.75;1.70;;;12.80;85.10;;;;;;5017709;28;20510;-66
2023/04/12 09:46:13;;;;;;;3.33;1.70;;;12.90;84.80;;;;;;5019518;28;20120;-66
2023/04/12 09:48:39;;;;;;;6.90;1.80;;;12.90;83.80;;;;;;5018703;28;20026;-66
2023/04/12 09:51:09;;;;;;;4.32;1.50;;;13.00;83.30;;;;;;5017593;28;20079;-66
2023/04/12 09:53:37;;;;;;;3.92;1.73;;;13.10;83.40;;;;;;5013353;28;20378;-68
2023/04/12 09:56:04;;;;;;;3.95;1.80;;;13.10;83.00;;;;;;5014938;28;20081;-66
2023/04/12 09:58:32;;;;;;;6.20;1.80;;;13.20;81.20;;;;;;5014086;28;20045;-67
2023/04/12 10:01:02;;;;;;;3.78;1.92;;;13.30;81.50;;;;;;5015241;28;20052;-67
2023/04/12 10:03:28;;;;;;;5.97;1.80;;;13.30;80.10;;;;;;5016902;28;20112;-67
2023/04/12 10:05:54;;;;;;;4.22;1.50;;;13.40;79.40;;;;;;5021254;28;20580;-67
2023/04/12 10:08:22;;;;;;;4.60;1.90;;;13.50;79.60;;;;;;5013826;28;20485;-68
2023/04/12 10:10:47;;;;;;;2.88;1.50;;;13.50;79.20;;;;;;5014585;28;20033;-67
2023/04/12 10:13:14;;;;;;;5.20;2.17;;;13.50;79.60;;;;;;5018738;28;20112;-67
2023/04/12 10:15:41;;;;;;;5.30;2.00;;;13.60;79.00;;;;;;5015445;28;20389;-67
2023/04/12 10:18:07;;;;;;;3.60;1.80;;;13.70;78.30;;;;;;5031626;28;20424;-67
2023/04/12 10:20:33;;;;;;;4.85;2.15;;;13.80;78.30;;;;;;5012601;28;20087;-67
2023/04/12 10:22:59;;;;;;;4.00;2.00;;;13.90;78.30;;;;;;5017750;28;20021;-68
2023/04/12 10:25:26;;;;;;;4.55;2.28;;;13.90;76.50;;;;;;5027709;28;20396;-67
2023/04/12 10:27:52;;;;;;;2.92;1.50;;;14.00;76.70;;;;;;5014646;28;20504;-67
2023/04/12 10:30:18;;;;;;;5.15;1.67;;;14.10;76.80;;;;;;5013436;28;20030;-67
2023/04/12 10:32:44;;;;;;;3.72;1.60;;;14.10;76.00;;;;;;5019149;28;20034;-67
2023/04/12 10:35:10;;;;;;;3.00;1.70;;;14.20;76.20;;;;;;5012492;28;20030;-68
2023/04/12 10:38:02;;;;;;;5.20;1.58;;;14.20;75.90;;;;;;5015374;28;20538;-67
2023/04/12 10:40:37;;;;;;;3.17;1.60;;;14.30;75.70;;;;;;5014714;28;20140;-67
2023/04/12 10:43:21;;;;;;;5.82;1.70;;;14.40;74.50;;;;;;5014736;28;20508;-67
2023/04/12 10:45:48;;;;;;;4.03;1.45;;;14.40;74.60;;;;;;5015284;28;20659;-67
2023/04/12 10:48:30;;;;;;;4.35;1.38;;;14.40;74.50;;;;;;5026752;28;20025;-67
2023/04/12 10:51:13;;;;;;;7.03;2.00;;;14.50;73.50;;;;;;5030701;28;20041;-66
2023/04/12 10:53:39;;;;;;;5.88;1.73;;;14.50;73.60;;;;;;5031191;28;20029;-66
2023/04/12 10:56:44;;;;;;;3.33;1.42;;;14.60;73.70;;;;;;5019725;28;20030;-67
2023/04/12 10:59:15;;;;;;;3.88;1.60;;;14.70;73.70;;;;;;5050385;28;20036;-67
2023/04/12 11:02:01;;;;;;;3.40;1.45;;;14.70;72.70;;;;;;5033666;28;20041;-67
2023/04/12 11:04:27;;;;;;;3.75;1.58;;;14.70;72.30;;;;;;5028076;28;20365;-66
2023/04/12 11:06:52;;;;;;;4.72;1.73;;;14.80;72.70;;;;;;5020651;28;20029;-67
2023/04/12 11:09:19;;;;;;;7.60;2.10;;;14.90;72.40;;;;;;5019434;28;20029;-67
2023/04/12 11:11:45;;;;;;;5.10;1.80;;;14.90;71.40;;;;;;5019314;28;20030;-67
2023/04/12 11:14:15;;;;;;;3.67;1.80;;;15.00;71.50;;;;;;5020697;28;20053;-68
2023/04/12 11:17:05;;;;;;;4.72;2.15;;;15.10;71.80;;;;;;5020403;28;20052;-67
2023/04/12 11:19:48;;;;;;;3.88;1.95;;;15.10;71.80;;;;;;5027419;28;20041;-68
2023/04/12 11:22:15;;;;;;;3.40;1.60;;;15.20;71.10;;;;;;5028098;28;20036;-67
2023/04/12 11:24:46;;;;;;;4.65;1.73;;;15.20;70.70;;;;;;5019599;28;20032;-68
2023/04/12 11:27:12;;;;;;;4.70;1.80;;;15.30;70.60;;;;;;5011746;28;20029;-67
2023/04/12 11:29:38;;;;;;;4.00;1.60;;;15.30;71.00;;;;;;5018851;28;20033;-68
2023/04/12 11:32:04;;;;;;;3.63;1.67;;;15.40;70.50;;;;;;5018482;28;20029;-68
2023/04/12 11:34:34;;;;;;;4.03;2.05;;;15.40;70.10;;;;;;5022426;28;20029;-68
2023/04/12 11:37:04;;;;;;;3.25;1.52;;;15.40;69.60;;;;;;5038078;28;20390;-68
2023/04/12 11:39:30;;;;;;;4.30;1.98;;;15.50;69.30;;;;;;5027183;28;20057;-68
2023/04/12 11:41:56;;;;;;;3.22;1.88;;;15.50;69.30;;;;;;5030538;28;20523;-68
2023/04/12 11:44:22;;;;;;;3.67;1.60;;;15.50;69.50;;;;;;5023293;28;20086;-68
2023/04/12 11:46:48;;;;;;;4.22;2.13;;;15.50;68.60;;;;;;5018812;28;20030;-68
2023/04/12 11:49:18;;;;;;;2.78;1.38;;;15.60;68.00;;;;;;5016485;28;20079;-68
2023/04/12 11:51:44;;;;;;;3.35;1.40;;;15.60;68.70;;;;;;5037497;28;20022;-67
2023/04/12 11:54:11;;;;;;;4.07;1.88;;;15.70;68.10;;;;;;5042105;28;20116;-67
2023/04/12 11:56:37;;;;;;;3.28;1.80;;;15.70;68.20;;;;;;5029358;28;20378;-69
2023/04/12 11:59:03;;;;;;;3.58;1.67;;;15.80;67.90;;;;;;5031912;28;20030;-68
2023/04/12 12:01:31;;;;;;;2.55;1.48;;;15.90;67.40;;;;;;5028621;28;20053;-67
2023/04/12 12:03:58;;;;;;;3.53;1.30;;;16.00;66.60;;;;;;5024653;28;20029;-68
2023/04/12 12:06:25;;;;;;;7.55;1.60;;;16.00;66.50;;;;;;5019956;28;20038;-68
2023/04/12 12:08:52;;;;;;;2.58;1.65;;;16.10;66.40;;;;;;5020499;28;20083;-68
2023/04/12 12:11:22;;;;;;;4.65;1.92;;;16.10;65.90;;;;;;5029171;28;20025;-68
2023/04/12 12:13:50;;;;;;;2.30;1.50;;;16.10;65.50;;;;;;5019349;28;20496;-67
2023/04/12 12:16:17;;;;;;;3.08;1.70;;;16.20;65.60;;;;;;5042864;28;20048;-67
2023/04/12 12:18:44;;;;;;;3.50;1.67;;;16.30;65.50;;;;;;5029231;28;20033;-67
2023/04/12 12:21:12;;;;;;;4.03;1.75;;;16.40;65.20;;;;;;5012526;28;20034;-67
2023/04/12 12:23:38;;;;;;;3.97;1.85;;;16.50;65.20;;;;;;5028490;28;20040;-67
2023/04/12 12:26:07;;;;;;;5.30;1.52;;;16.50;65.30;;;;;;5028342;28;20040;-67
2023/04/12 12:28:37;;;;;;;3.67;1.55;;;16.60;65.20;;;;;;5018048;28;20026;-67
2023/04/12 12:31:06;;;;;;;2.22;1.45;;;16.70;64.30;;;;;;5031999;28;20026;-67
2023/04/12 12:33:38;;;;;;;1.63;1.40;;;16.70;64.10;;;;;;5026993;28;20052;-67
2023/04/12 12:36:07;;;;;;;4.32;1.65;;;16.80;64.30;;;;;;5030047;28;20075;-67
2023/04/12 12:38:41;;;;;;;3.08;1.55;;;16.90;64.20;;;;;;5020423;28;20018;-67
2023/04/12 12:41:20;;;;;;;3.03;1.50;;;17.00;64.10;;;;;;5015108;28;20060;-68
2023/04/12 12:43:47;;;;;;;3.60;1.42;;;17.10;64.20;;;;;;5022598;28;20030;-67
2023/04/12 12:46:13;;;;;;;2.55;1.55;;;17.20;63.10;;;;;;5011742;28;20025;-69
2023/04/12 12:48:42;;;;;;;4.47;1.83;;;17.20;62.90;;;;;;5033648;28;20026;-67
2023/04/12 12:51:11;;;;;;;4.80;1.85;;;17.30;62.60;;;;;;5017439;28;20508;-66
2023/04/12 12:53:39;;;;;;;3.72;1.60;;;17.20;62.30;;;;;;5018224;28;20612;-67
2023/04/12 12:56:05;;;;;;;3.35;1.70;;;17.30;61.90;;;;;;5022342;28;20144;-68